Данни от 23.09.2020 г. 19:32:00

Температура вътрешна: 24.0 °C
Температура външна: 25.4 °C
Атмосферно налягане: 993.5 hPa
Атмосферно налягане на морско равнище: 1011.2 hPa
Влажност: 44.3 %



История от последните 24 часа

Дата и часTin [°C]P [hPa]Psl [hPa]H [%]Tout [°C]
   23.09.2020 г. 19:30:00      24.1      993.5      1011.3      44.1      25.4   
   23.09.2020 г. 19:00:59      24.0      993.2      1010.9      44.1      27.6   
   23.09.2020 г. 18:30:00      23.9      993.3      1011.0      43.8      28.8   
   23.09.2020 г. 18:00:59      23.9      993.1      1010.8      42.9      29.3   
   23.09.2020 г. 17:30:00      23.8      993.1      1010.8      41.6      31.5   
   23.09.2020 г. 17:00:00      23.8      993.1      1010.9      41.7      32.7   
   23.09.2020 г. 16:30:00      23.8      993.4      1011.1      42.0      31.5   
   23.09.2020 г. 16:00:00      23.9      993.6      1011.4      42.1      30.3   
   23.09.2020 г. 15:00:00      23.7      994.4      1012.1      42.5      29.1   
   23.09.2020 г. 14:30:59      23.7      994.6      1012.3      43.5      27.9   
   23.09.2020 г. 14:00:00      23.7      995.0      1012.8      43.4      26.7   
   23.09.2020 г. 13:30:59      23.6      995.6      1013.4      43.7      25.5   
   23.09.2020 г. 13:00:00      23.6      996.0      1013.7      43.9      24.5   
   23.09.2020 г. 12:30:59      23.6      996.2      1013.9      43.5      24.1   
   23.09.2020 г. 12:00:00      23.6      996.4      1014.2      44.1      23.0   
   23.09.2020 г. 11:30:59      23.5      996.8      1014.6      43.9      22.3   
   23.09.2020 г. 11:00:00      23.5      997.3      1015.1      44.4      20.9   
   23.09.2020 г. 10:30:59      23.4      997.6      1015.4      44.5      20.0   
   23.09.2020 г. 10:00:00      23.3      997.8      1015.6      44.3      19.0   
   23.09.2020 г. 09:30:59      23.2      997.7      1015.5      44.0      18.1   
   23.09.2020 г. 09:00:00      23.2      997.8      1015.7      44.8      17.0   
   23.09.2020 г. 08:30:59      23.0      997.8      1015.6      44.4      16.0   
   23.09.2020 г. 08:00:00      23.0      997.9      1015.7      43.8      15.3   
   23.09.2020 г. 07:30:59      22.9      997.9      1015.8      44.6      14.5   
   23.09.2020 г. 07:00:00      22.9      997.9      1015.7      44.2      14.0   
   23.09.2020 г. 06:30:59      22.8      997.8      1015.7      44.0      14.0   
   23.09.2020 г. 06:00:00      22.0      998.0      1015.8      45.0      14.3   
   23.09.2020 г. 05:30:59      22.3      997.9      1015.8      44.7      14.3   
   23.09.2020 г. 05:00:00      22.4      998.0      1015.8      44.7      14.6   
   23.09.2020 г. 04:30:59      22.8      998.1      1015.9      43.8      15.4   
   23.09.2020 г. 04:30:00      22.7      998.1      1016.0      44.0      15.1   
   23.09.2020 г. 04:00:00      22.8      998.2      1016.0      43.4      16.1   
   23.09.2020 г. 03:30:00      23.1      998.3      1016.2      43.4      16.9   
   23.09.2020 г. 03:00:00      23.3      998.6      1016.5      42.4      18.3   
   23.09.2020 г. 02:30:00      23.4      998.6      1016.4      42.0      18.1   
   23.09.2020 г. 02:00:00      23.4      998.6      1016.4      41.3      17.8   
   23.09.2020 г. 01:30:00      23.4      998.7      1016.6      40.7      17.5   
   23.09.2020 г. 00:30:00      23.6      999.1      1017.0      39.8      18.9   
   23.09.2020 г. 00:00:59      23.6      999.4      1017.3      40.3      18.0   
   22.09.2020 г. 23:30:00      24.3      999.6      1017.5      41.0      17.6   
   22.09.2020 г. 23:00:59      24.3      999.5      1017.4      40.9      18.3   
   22.09.2020 г. 22:30:00      24.2      999.4      1017.2      40.5      18.6   
   22.09.2020 г. 22:00:59      24.2      999.2      1017.1      40.2      18.5   
   22.09.2020 г. 21:30:00      24.0      999.2      1017.0      40.3      19.0   
   22.09.2020 г. 21:00:59      23.9      999.1      1017.0      40.3      19.9   
   22.09.2020 г. 20:30:00      24.0      999.0      1016.9      39.5      20.0   
   22.09.2020 г. 20:00:59      24.0      998.8      1016.7      39.2      20.5   
   22.09.2020 г. 19:30:00      23.9      998.8      1016.6      38.6      22.3   

BaroSL graphic

TEMPE graphic